sensor_id;sensor_type;location;lat;lon;timestamp;P1;durP1;ratioP1;P2;durP2;ratioP2
43678;SDS011;29279;50.858;4.392;2023-08-21T00:01:40;12.40;;;2.17;;
43678;SDS011;29279;50.858;4.392;2023-08-21T00:04:05;10.60;;;2.50;;
43678;SDS011;29279;50.858;4.392;2023-08-21T00:06:31;5.22;;;2.00;;
43678;SDS011;29279;50.858;4.392;2023-08-21T00:08:57;12.40;;;2.65;;
43678;SDS011;29279;50.858;4.392;2023-08-21T00:11:22;16.33;;;2.60;;
43678;SDS011;29279;50.858;4.392;2023-08-21T00:13:48;10.75;;;1.88;;
43678;SDS011;29279;50.858;4.392;2023-08-21T00:16:14;8.20;;;1.70;;
43678;SDS011;29279;50.858;4.392;2023-08-21T00:18:41;9.05;;;2.17;;
43678;SDS011;29279;50.858;4.392;2023-08-21T00:21:07;13.77;;;2.17;;
43678;SDS011;29279;50.858;4.392;2023-08-21T00:23:32;11.75;;;2.47;;
43678;SDS011;29279;50.858;4.392;2023-08-21T00:25:58;9.38;;;2.17;;
43678;SDS011;29279;50.858;4.392;2023-08-21T00:28:24;10.65;;;2.08;;
43678;SDS011;29279;50.858;4.392;2023-08-21T00:30:50;13.30;;;2.80;;
43678;SDS011;29279;50.858;4.392;2023-08-21T00:33:15;8.30;;;2.05;;
43678;SDS011;29279;50.858;4.392;2023-08-21T00:35:44;6.00;;;2.15;;
43678;SDS011;29279;50.858;4.392;2023-08-21T00:38:10;10.70;;;2.50;;
43678;SDS011;29279;50.858;4.392;2023-08-21T00:40:35;12.02;;;2.70;;
43678;SDS011;29279;50.858;4.392;2023-08-21T00:43:01;10.52;;;2.55;;
43678;SDS011;29279;50.858;4.392;2023-08-21T00:45:28;11.15;;;2.72;;
43678;SDS011;29279;50.858;4.392;2023-08-21T00:47:53;14.90;;;2.53;;
43678;SDS011;29279;50.858;4.392;2023-08-21T00:50:19;6.22;;;2.13;;
43678;SDS011;29279;50.858;4.392;2023-08-21T00:52:45;6.47;;;1.90;;
43678;SDS011;29279;50.858;4.392;2023-08-21T00:55:12;12.35;;;2.28;;
43678;SDS011;29279;50.858;4.392;2023-08-21T00:57:39;10.35;;;2.17;;
43678;SDS011;29279;50.858;4.392;2023-08-21T01:00:05;9.07;;;2.25;;
43678;SDS011;29279;50.858;4.392;2023-08-21T01:02:35;15.38;;;2.38;;
43678;SDS011;29279;50.858;4.392;2023-08-21T01:05:00;11.18;;;2.55;;
43678;SDS011;29279;50.858;4.392;2023-08-21T01:07:26;11.02;;;2.08;;
43678;SDS011;29279;50.858;4.392;2023-08-21T01:09:58;11.55;;;2.42;;
43678;SDS011;29279;50.858;4.392;2023-08-21T01:15:05;11.60;;;2.42;;
43678;SDS011;29279;50.858;4.392;2023-08-21T01:17:36;17.27;;;2.63;;
43678;SDS011;29279;50.858;4.392;2023-08-21T01:20:03;9.75;;;2.25;;
43678;SDS011;29279;50.858;4.392;2023-08-21T01:22:35;10.10;;;2.40;;
43678;SDS011;29279;50.858;4.392;2023-08-21T01:25:02;14.57;;;2.55;;
43678;SDS011;29279;50.858;4.392;2023-08-21T01:27:28;9.40;;;2.10;;
43678;SDS011;29279;50.858;4.392;2023-08-21T01:29:53;8.10;;;2.05;;
43678;SDS011;29279;50.858;4.392;2023-08-21T01:32:21;11.65;;;2.45;;
43678;SDS011;29279;50.858;4.392;2023-08-21T01:34:54;12.75;;;2.17;;
43678;SDS011;29279;50.858;4.392;2023-08-21T01:37:21;11.05;;;2.72;;
43678;SDS011;29279;50.858;4.392;2023-08-21T01:39:48;9.18;;;2.08;;
43678;SDS011;29279;50.858;4.392;2023-08-21T01:42:14;14.00;;;2.72;;
43678;SDS011;29279;50.858;4.392;2023-08-21T01:44:39;10.27;;;2.22;;
43678;SDS011;29279;50.858;4.392;2023-08-21T01:47:05;11.07;;;2.60;;
43678;SDS011;29279;50.858;4.392;2023-08-21T01:49:31;10.68;;;2.50;;
43678;SDS011;29279;50.858;4.392;2023-08-21T01:51:57;16.23;;;2.15;;
43678;SDS011;29279;50.858;4.392;2023-08-21T01:54:22;12.38;;;2.53;;
43678;SDS011;29279;50.858;4.392;2023-08-21T01:56:48;12.95;;;2.40;;
43678;SDS011;29279;50.858;4.392;2023-08-21T01:59:15;16.00;;;2.67;;
43678;SDS011;29279;50.858;4.392;2023-08-21T02:01:42;10.90;;;2.45;;
43678;SDS011;29279;50.858;4.392;2023-08-21T02:04:07;9.63;;;2.67;;
43678;SDS011;29279;50.858;4.392;2023-08-21T02:06:33;8.50;;;2.25;;
43678;SDS011;29279;50.858;4.392;2023-08-21T02:08:59;10.80;;;2.58;;
43678;SDS011;29279;50.858;4.392;2023-08-21T02:11:24;10.68;;;2.38;;
43678;SDS011;29279;50.858;4.392;2023-08-21T02:13:50;10.98;;;2.40;;
43678;SDS011;29279;50.858;4.392;2023-08-21T02:16:15;11.68;;;2.55;;
43678;SDS011;29279;50.858;4.392;2023-08-21T02:18:41;13.73;;;2.53;;
43678;SDS011;29279;50.858;4.392;2023-08-21T02:21:07;12.95;;;2.40;;
43678;SDS011;29279;50.858;4.392;2023-08-21T02:23:32;14.88;;;2.40;;
43678;SDS011;29279;50.858;4.392;2023-08-21T02:25:58;12.23;;;2.70;;
43678;SDS011;29279;50.858;4.392;2023-08-21T02:28:23;16.63;;;2.55;;
43678;SDS011;29279;50.858;4.392;2023-08-21T02:30:49;11.00;;;2.28;;
43678;SDS011;29279;50.858;4.392;2023-08-21T02:33:15;10.40;;;2.78;;
43678;SDS011;29279;50.858;4.392;2023-08-21T02:35:40;10.40;;;2.20;;
43678;SDS011;29279;50.858;4.392;2023-08-21T02:38:06;16.73;;;2.67;;
43678;SDS011;29279;50.858;4.392;2023-08-21T02:40:32;15.60;;;2.75;;
43678;SDS011;29279;50.858;4.392;2023-08-21T02:42:57;11.48;;;2.50;;
43678;SDS011;29279;50.858;4.392;2023-08-21T02:45:23;9.35;;;2.80;;
43678;SDS011;29279;50.858;4.392;2023-08-21T02:47:49;14.38;;;2.45;;
43678;SDS011;29279;50.858;4.392;2023-08-21T02:50:14;9.25;;;2.17;;
43678;SDS011;29279;50.858;4.392;2023-08-21T02:52:40;12.30;;;2.40;;
43678;SDS011;29279;50.858;4.392;2023-08-21T02:55:06;13.43;;;2.35;;
43678;SDS011;29279;50.858;4.392;2023-08-21T02:57:32;8.40;;;1.92;;
43678;SDS011;29279;50.858;4.392;2023-08-21T02:59:58;11.80;;;2.35;;
43678;SDS011;29279;50.858;4.392;2023-08-21T03:02:23;11.18;;;2.47;;
43678;SDS011;29279;50.858;4.392;2023-08-21T03:04:49;9.05;;;2.30;;
43678;SDS011;29279;50.858;4.392;2023-08-21T03:07:16;18.40;;;3.17;;
43678;SDS011;29279;50.858;4.392;2023-08-21T03:09:44;10.30;;;2.60;;
43678;SDS011;29279;50.858;4.392;2023-08-21T03:12:11;10.52;;;2.63;;
43678;SDS011;29279;50.858;4.392;2023-08-21T03:14:36;9.55;;;2.65;;
43678;SDS011;29279;50.858;4.392;2023-08-21T03:17:02;14.10;;;2.90;;
43678;SDS011;29279;50.858;4.392;2023-08-21T03:19:27;16.73;;;3.17;;
43678;SDS011;29279;50.858;4.392;2023-08-21T03:21:53;12.48;;;2.38;;
43678;SDS011;29279;50.858;4.392;2023-08-21T03:24:19;8.25;;;2.55;;
43678;SDS011;29279;50.858;4.392;2023-08-21T03:26:45;11.50;;;3.10;;
43678;SDS011;29279;50.858;4.392;2023-08-21T03:29:10;18.30;;;2.97;;
43678;SDS011;29279;50.858;4.392;2023-08-21T03:31:36;13.85;;;3.15;;
43678;SDS011;29279;50.858;4.392;2023-08-21T03:34:02;12.07;;;2.40;;
43678;SDS011;29279;50.858;4.392;2023-08-21T03:36:27;19.88;;;3.15;;
43678;SDS011;29279;50.858;4.392;2023-08-21T03:39:00;12.00;;;2.70;;
43678;SDS011;29279;50.858;4.392;2023-08-21T03:41:26;10.10;;;2.72;;
43678;SDS011;29279;50.858;4.392;2023-08-21T03:43:52;14.55;;;3.10;;
43678;SDS011;29279;50.858;4.392;2023-08-21T03:46:17;9.13;;;2.42;;
43678;SDS011;29279;50.858;4.392;2023-08-21T03:48:43;11.85;;;2.65;;
43678;SDS011;29279;50.858;4.392;2023-08-21T03:51:09;11.18;;;2.70;;
43678;SDS011;29279;50.858;4.392;2023-08-21T03:53:34;14.00;;;3.40;;
43678;SDS011;29279;50.858;4.392;2023-08-21T03:56:00;14.43;;;3.00;;
43678;SDS011;29279;50.858;4.392;2023-08-21T03:58:26;10.38;;;2.35;;
43678;SDS011;29279;50.858;4.392;2023-08-21T04:00:52;15.13;;;2.58;;
43678;SDS011;29279;50.858;4.392;2023-08-21T04:03:18;11.45;;;2.28;;
43678;SDS011;29279;50.858;4.392;2023-08-21T04:05:44;14.15;;;3.17;;
43678;SDS011;29279;50.858;4.392;2023-08-21T04:08:10;12.68;;;2.58;;
43678;SDS011;29279;50.858;4.392;2023-08-21T04:10:35;13.18;;;2.65;;
43678;SDS011;29279;50.858;4.392;2023-08-21T04:13:01;16.10;;;3.03;;
43678;SDS011;29279;50.858;4.392;2023-08-21T04:15:27;16.50;;;2.78;;
43678;SDS011;29279;50.858;4.392;2023-08-21T04:17:55;13.57;;;2.50;;
43678;SDS011;29279;50.858;4.392;2023-08-21T04:20:21;10.85;;;2.80;;
43678;SDS011;29279;50.858;4.392;2023-08-21T04:22:47;11.82;;;2.50;;
43678;SDS011;29279;50.858;4.392;2023-08-21T04:25:13;7.72;;;2.45;;
43678;SDS011;29279;50.858;4.392;2023-08-21T04:27:39;18.85;;;3.05;;
43678;SDS011;29279;50.858;4.392;2023-08-21T04:30:04;9.57;;;2.92;;
43678;SDS011;29279;50.858;4.392;2023-08-21T04:32:31;13.93;;;2.30;;
43678;SDS011;29279;50.858;4.392;2023-08-21T04:34:56;12.77;;;2.78;;
43678;SDS011;29279;50.858;4.392;2023-08-21T04:37:23;18.50;;;3.78;;
43678;SDS011;29279;50.858;4.392;2023-08-21T04:39:52;17.05;;;4.07;;
43678;SDS011;29279;50.858;4.392;2023-08-21T04:42:18;15.40;;;3.35;;
43678;SDS011;29279;50.858;4.392;2023-08-21T04:44:45;15.05;;;2.97;;
43678;SDS011;29279;50.858;4.392;2023-08-21T04:47:26;18.67;;;3.72;;
43678;SDS011;29279;50.858;4.392;2023-08-21T04:49:52;15.80;;;3.38;;
43678;SDS011;29279;50.858;4.392;2023-08-21T04:52:19;11.85;;;3.05;;
43678;SDS011;29279;50.858;4.392;2023-08-21T04:54:45;16.27;;;3.50;;
43678;SDS011;29279;50.858;4.392;2023-08-21T04:57:12;13.13;;;3.42;;
43678;SDS011;29279;50.858;4.392;2023-08-21T04:59:37;11.98;;;3.20;;
43678;SDS011;29279;50.858;4.392;2023-08-21T05:02:03;16.17;;;3.03;;
43678;SDS011;29279;50.858;4.392;2023-08-21T05:04:29;13.60;;;2.92;;
43678;SDS011;29279;50.858;4.392;2023-08-21T05:06:54;14.98;;;3.50;;
43678;SDS011;29279;50.858;4.392;2023-08-21T05:09:20;17.80;;;3.47;;
43678;SDS011;29279;50.858;4.392;2023-08-21T05:11:46;13.20;;;3.00;;
43678;SDS011;29279;50.858;4.392;2023-08-21T05:14:11;10.63;;;2.85;;
43678;SDS011;29279;50.858;4.392;2023-08-21T05:16:37;18.92;;;3.35;;
43678;SDS011;29279;50.858;4.392;2023-08-21T05:19:03;11.30;;;2.75;;
43678;SDS011;29279;50.858;4.392;2023-08-21T05:21:28;12.55;;;3.42;;
43678;SDS011;29279;50.858;4.392;2023-08-21T05:23:54;13.50;;;2.78;;
43678;SDS011;29279;50.858;4.392;2023-08-21T05:26:20;13.65;;;3.00;;
43678;SDS011;29279;50.858;4.392;2023-08-21T05:28:45;14.45;;;2.90;;
43678;SDS011;29279;50.858;4.392;2023-08-21T05:31:11;15.02;;;3.15;;
43678;SDS011;29279;50.858;4.392;2023-08-21T05:33:37;17.27;;;3.15;;
43678;SDS011;29279;50.858;4.392;2023-08-21T05:36:03;18.00;;;3.45;;
43678;SDS011;29279;50.858;4.392;2023-08-21T05:38:29;15.05;;;4.20;;
43678;SDS011;29279;50.858;4.392;2023-08-21T05:40:55;15.18;;;3.28;;
43678;SDS011;29279;50.858;4.392;2023-08-21T05:43:21;16.73;;;2.83;;
43678;SDS011;29279;50.858;4.392;2023-08-21T05:45:47;13.73;;;2.72;;
43678;SDS011;29279;50.858;4.392;2023-08-21T05:48:13;15.25;;;3.05;;
43678;SDS011;29279;50.858;4.392;2023-08-21T05:50:38;11.60;;;2.90;;
43678;SDS011;29279;50.858;4.392;2023-08-21T05:53:04;11.15;;;2.88;;
43678;SDS011;29279;50.858;4.392;2023-08-21T05:55:30;13.75;;;3.50;;
43678;SDS011;29279;50.858;4.392;2023-08-21T05:57:56;20.17;;;3.55;;
43678;SDS011;29279;50.858;4.392;2023-08-21T06:00:22;13.02;;;2.63;;
43678;SDS011;29279;50.858;4.392;2023-08-21T06:02:47;18.55;;;3.28;;
43678;SDS011;29279;50.858;4.392;2023-08-21T06:05:13;11.95;;;3.45;;
43678;SDS011;29279;50.858;4.392;2023-08-21T06:07:39;14.32;;;3.90;;
43678;SDS011;29279;50.858;4.392;2023-08-21T06:10:11;24.23;;;3.92;;
43678;SDS011;29279;50.858;4.392;2023-08-21T06:12:38;16.98;;;4.00;;
43678;SDS011;29279;50.858;4.392;2023-08-21T06:15:05;39.88;;;14.23;;
43678;SDS011;29279;50.858;4.392;2023-08-21T06:17:35;25.35;;;6.88;;
43678;SDS011;29279;50.858;4.392;2023-08-21T06:20:01;18.17;;;3.97;;
43678;SDS011;29279;50.858;4.392;2023-08-21T06:22:30;20.98;;;4.30;;
43678;SDS011;29279;50.858;4.392;2023-08-21T06:24:59;36.83;;;13.25;;
43678;SDS011;29279;50.858;4.392;2023-08-21T06:27:24;28.88;;;8.55;;
43678;SDS011;29279;50.858;4.392;2023-08-21T06:29:50;23.25;;;5.70;;
43678;SDS011;29279;50.858;4.392;2023-08-21T06:32:15;19.55;;;5.38;;
43678;SDS011;29279;50.858;4.392;2023-08-21T06:34:41;20.33;;;6.43;;
43678;SDS011;29279;50.858;4.392;2023-08-21T06:37:07;20.75;;;6.22;;
43678;SDS011;29279;50.858;4.392;2023-08-21T06:39:33;28.77;;;7.13;;
43678;SDS011;29279;50.858;4.392;2023-08-21T06:41:59;37.03;;;6.40;;
43678;SDS011;29279;50.858;4.392;2023-08-21T06:44:25;20.08;;;5.32;;
43678;SDS011;29279;50.858;4.392;2023-08-21T06:46:51;22.92;;;6.68;;
43678;SDS011;29279;50.858;4.392;2023-08-21T06:49:17;24.85;;;6.38;;
43678;SDS011;29279;50.858;4.392;2023-08-21T06:51:42;26.27;;;5.80;;
43678;SDS011;29279;50.858;4.392;2023-08-21T06:54:08;21.35;;;5.10;;
43678;SDS011;29279;50.858;4.392;2023-08-21T06:56:34;25.40;;;5.13;;
43678;SDS011;29279;50.858;4.392;2023-08-21T06:58:59;20.23;;;5.22;;
43678;SDS011;29279;50.858;4.392;2023-08-21T07:01:25;18.92;;;5.30;;
43678;SDS011;29279;50.858;4.392;2023-08-21T07:03:51;24.42;;;5.20;;
43678;SDS011;29279;50.858;4.392;2023-08-21T07:06:17;18.15;;;4.47;;
43678;SDS011;29279;50.858;4.392;2023-08-21T07:08:42;20.55;;;4.45;;
43678;SDS011;29279;50.858;4.392;2023-08-21T07:11:08;21.60;;;4.40;;
43678;SDS011;29279;50.858;4.392;2023-08-21T07:13:35;18.77;;;4.68;;
43678;SDS011;29279;50.858;4.392;2023-08-21T07:16:01;20.85;;;4.82;;
43678;SDS011;29279;50.858;4.392;2023-08-21T07:18:28;25.98;;;4.88;;
43678;SDS011;29279;50.858;4.392;2023-08-21T07:20:55;20.38;;;4.97;;
43678;SDS011;29279;50.858;4.392;2023-08-21T07:23:21;29.65;;;5.53;;
43678;SDS011;29279;50.858;4.392;2023-08-21T07:25:46;14.65;;;3.75;;
43678;SDS011;29279;50.858;4.392;2023-08-21T07:28:12;16.45;;;3.72;;
43678;SDS011;29279;50.858;4.392;2023-08-21T07:30:38;22.70;;;3.83;;
43678;SDS011;29279;50.858;4.392;2023-08-21T07:33:04;16.05;;;4.75;;
43678;SDS011;29279;50.858;4.392;2023-08-21T07:35:30;24.65;;;4.18;;
43678;SDS011;29279;50.858;4.392;2023-08-21T07:37:57;19.85;;;3.90;;
43678;SDS011;29279;50.858;4.392;2023-08-21T07:40:23;20.65;;;3.88;;
43678;SDS011;29279;50.858;4.392;2023-08-21T07:42:48;17.80;;;4.22;;
43678;SDS011;29279;50.858;4.392;2023-08-21T07:45:14;14.63;;;3.95;;
43678;SDS011;29279;50.858;4.392;2023-08-21T07:47:40;95.40;;;30.10;;
43678;SDS011;29279;50.858;4.392;2023-08-21T07:50:06;51.53;;;15.10;;
43678;SDS011;29279;50.858;4.392;2023-08-21T07:52:32;47.50;;;13.00;;
43678;SDS011;29279;50.858;4.392;2023-08-21T07:54:58;53.83;;;13.75;;
43678;SDS011;29279;50.858;4.392;2023-08-21T07:57:26;80.15;;;23.92;;
43678;SDS011;29279;50.858;4.392;2023-08-21T07:59:52;44.55;;;11.90;;
43678;SDS011;29279;50.858;4.392;2023-08-21T08:02:17;21.17;;;6.80;;
43678;SDS011;29279;50.858;4.392;2023-08-21T08:04:43;18.77;;;4.88;;
43678;SDS011;29279;50.858;4.392;2023-08-21T08:07:09;25.02;;;7.30;;
43678;SDS011;29279;50.858;4.392;2023-08-21T08:09:34;27.77;;;7.00;;
43678;SDS011;29279;50.858;4.392;2023-08-21T08:12:01;20.90;;;4.90;;
43678;SDS011;29279;50.858;4.392;2023-08-21T08:14:26;18.15;;;4.90;;
43678;SDS011;29279;50.858;4.392;2023-08-21T08:16:52;14.77;;;4.72;;
43678;SDS011;29279;50.858;4.392;2023-08-21T08:19:18;13.13;;;3.63;;
43678;SDS011;29279;50.858;4.392;2023-08-21T08:21:43;18.05;;;4.20;;
43678;SDS011;29279;50.858;4.392;2023-08-21T08:24:09;46.45;;;11.07;;
43678;SDS011;29279;50.858;4.392;2023-08-21T08:26:35;69.95;;;16.27;;
43678;SDS011;29279;50.858;4.392;2023-08-21T08:29:00;48.67;;;11.88;;
43678;SDS011;29279;50.858;4.392;2023-08-21T08:31:26;48.22;;;9.82;;
43678;SDS011;29279;50.858;4.392;2023-08-21T08:33:53;22.75;;;4.85;;
43678;SDS011;29279;50.858;4.392;2023-08-21T08:36:19;19.92;;;5.03;;
43678;SDS011;29279;50.858;4.392;2023-08-21T08:38:45;16.27;;;4.30;;
43678;SDS011;29279;50.858;4.392;2023-08-21T08:41:19;14.80;;;4.00;;
43678;SDS011;29279;50.858;4.392;2023-08-21T08:43:53;22.17;;;4.93;;
43678;SDS011;29279;50.858;4.392;2023-08-21T08:46:21;14.38;;;3.53;;
43678;SDS011;29279;50.858;4.392;2023-08-21T08:48:49;15.93;;;4.40;;
43678;SDS011;29279;50.858;4.392;2023-08-21T08:51:15;33.00;;;4.75;;
43678;SDS011;29279;50.858;4.392;2023-08-21T08:53:42;22.15;;;5.10;;
43678;SDS011;29279;50.858;4.392;2023-08-21T08:56:09;17.42;;;4.45;;
43678;SDS011;29279;50.858;4.392;2023-08-21T08:58:34;22.45;;;4.30;;
43678;SDS011;29279;50.858;4.392;2023-08-21T09:01:00;19.08;;;4.25;;
43678;SDS011;29279;50.858;4.392;2023-08-21T09:03:26;13.77;;;3.85;;
43678;SDS011;29279;50.858;4.392;2023-08-21T09:05:53;19.60;;;4.10;;
43678;SDS011;29279;50.858;4.392;2023-08-21T09:08:18;14.70;;;3.03;;
43678;SDS011;29279;50.858;4.392;2023-08-21T09:10:45;13.65;;;3.10;;
43678;SDS011;29279;50.858;4.392;2023-08-21T09:13:19;13.50;;;3.45;;
43678;SDS011;29279;50.858;4.392;2023-08-21T09:15:45;11.93;;;3.00;;
43678;SDS011;29279;50.858;4.392;2023-08-21T09:18:13;15.50;;;3.65;;
43678;SDS011;29279;50.858;4.392;2023-08-21T09:20:43;13.63;;;3.22;;
43678;SDS011;29279;50.858;4.392;2023-08-21T09:23:13;28.63;;;2.92;;
43678;SDS011;29279;50.858;4.392;2023-08-21T09:25:39;17.50;;;2.72;;
43678;SDS011;29279;50.858;4.392;2023-08-21T09:28:06;12.18;;;2.47;;
43678;SDS011;29279;50.858;4.392;2023-08-21T09:30:49;8.52;;;1.95;;
43678;SDS011;29279;50.858;4.392;2023-08-21T09:33:17;8.20;;;1.65;;
43678;SDS011;29279;50.858;4.392;2023-08-21T09:35:44;9.63;;;1.90;;
43678;SDS011;29279;50.858;4.392;2023-08-21T09:38:10;11.30;;;2.55;;
43678;SDS011;29279;50.858;4.392;2023-08-21T09:40:39;13.98;;;2.00;;
43678;SDS011;29279;50.858;4.392;2023-08-21T09:43:06;10.15;;;1.92;;
43678;SDS011;29279;50.858;4.392;2023-08-21T09:45:34;6.65;;;1.35;;
43678;SDS011;29279;50.858;4.392;2023-08-21T09:48:00;5.25;;;1.85;;
43678;SDS011;29279;50.858;4.392;2023-08-21T09:50:28;2.88;;;1.08;;
43678;SDS011;29279;50.858;4.392;2023-08-21T09:52:54;6.13;;;1.48;;
43678;SDS011;29279;50.858;4.392;2023-08-21T09:55:23;5.72;;;2.13;;
43678;SDS011;29279;50.858;4.392;2023-08-21T09:57:51;7.22;;;1.80;;
43678;SDS011;29279;50.858;4.392;2023-08-21T10:00:23;9.57;;;1.95;;
43678;SDS011;29279;50.858;4.392;2023-08-21T10:02:51;7.75;;;2.10;;
43678;SDS011;29279;50.858;4.392;2023-08-21T10:05:19;13.25;;;2.53;;
43678;SDS011;29279;50.858;4.392;2023-08-21T10:07:48;9.00;;;1.73;;
43678;SDS011;29279;50.858;4.392;2023-08-21T10:10:15;13.20;;;2.45;;
43678;SDS011;29279;50.858;4.392;2023-08-21T10:12:42;6.63;;;1.77;;
43678;SDS011;29279;50.858;4.392;2023-08-21T10:15:07;9.57;;;1.98;;
43678;SDS011;29279;50.858;4.392;2023-08-21T10:17:34;10.32;;;1.98;;
43678;SDS011;29279;50.858;4.392;2023-08-21T10:20:10;5.40;;;1.90;;
43678;SDS011;29279;50.858;4.392;2023-08-21T10:22:41;5.63;;;1.88;;
43678;SDS011;29279;50.858;4.392;2023-08-21T10:25:15;9.57;;;1.92;;
43678;SDS011;29279;50.858;4.392;2023-08-21T10:27:49;5.80;;;1.27;;
43678;SDS011;29279;50.858;4.392;2023-08-21T10:30:20;7.43;;;2.05;;
43678;SDS011;29279;50.858;4.392;2023-08-21T10:35:23;7.78;;;1.45;;
43678;SDS011;29279;50.858;4.392;2023-08-21T10:38:06;7.18;;;1.90;;
43678;SDS011;29279;50.858;4.392;2023-08-21T10:40:32;6.60;;;1.58;;
43678;SDS011;29279;50.858;4.392;2023-08-21T10:42:59;6.35;;;1.30;;
43678;SDS011;29279;50.858;4.392;2023-08-21T10:45:25;4.10;;;1.13;;
43678;SDS011;29279;50.858;4.392;2023-08-21T10:47:50;10.20;;;1.92;;
43678;SDS011;29279;50.858;4.392;2023-08-21T10:50:16;4.55;;;1.80;;
43678;SDS011;29279;50.858;4.392;2023-08-21T10:52:43;5.93;;;1.65;;
43678;SDS011;29279;50.858;4.392;2023-08-21T10:55:12;4.38;;;1.33;;
43678;SDS011;29279;50.858;4.392;2023-08-21T10:57:39;3.70;;;1.27;;
43678;SDS011;29279;50.858;4.392;2023-08-21T11:00:09;6.20;;;1.48;;
43678;SDS011;29279;50.858;4.392;2023-08-21T11:02:43;3.55;;;1.30;;
43678;SDS011;29279;50.858;4.392;2023-08-21T11:05:10;8.32;;;1.33;;
43678;SDS011;29279;50.858;4.392;2023-08-21T11:07:37;7.57;;;1.40;;
43678;SDS011;29279;50.858;4.392;2023-08-21T11:10:07;8.18;;;1.02;;
43678;SDS011;29279;50.858;4.392;2023-08-21T11:12:35;6.53;;;1.48;;
43678;SDS011;29279;50.858;4.392;2023-08-21T11:15:00;5.88;;;1.70;;
43678;SDS011;29279;50.858;4.392;2023-08-21T11:17:27;6.38;;;1.33;;
43678;SDS011;29279;50.858;4.392;2023-08-21T11:19:52;6.40;;;1.35;;
43678;SDS011;29279;50.858;4.392;2023-08-21T11:22:18;10.15;;;1.40;;
43678;SDS011;29279;50.858;4.392;2023-08-21T11:24:45;6.93;;;1.48;;
43678;SDS011;29279;50.858;4.392;2023-08-21T11:27:14;4.57;;;1.20;;
43678;SDS011;29279;50.858;4.392;2023-08-21T11:29:42;6.90;;;1.40;;
43678;SDS011;29279;50.858;4.392;2023-08-21T11:32:15;5.75;;;1.50;;
43678;SDS011;29279;50.858;4.392;2023-08-21T11:34:50;9.33;;;2.23;;
43678;SDS011;29279;50.858;4.392;2023-08-21T11:37:17;7.57;;;1.80;;
43678;SDS011;29279;50.858;4.392;2023-08-21T11:39:48;14.20;;;2.22;;
43678;SDS011;29279;50.858;4.392;2023-08-21T11:42:15;10.80;;;2.08;;
43678;SDS011;29279;50.858;4.392;2023-08-21T11:44:49;10.63;;;2.20;;
43678;SDS011;29279;50.858;4.392;2023-08-21T11:47:17;13.98;;;2.08;;
43678;SDS011;29279;50.858;4.392;2023-08-21T11:49:44;29.83;;;4.30;;
43678;SDS011;29279;50.858;4.392;2023-08-21T11:52:12;11.10;;;1.42;;
43678;SDS011;29279;50.858;4.392;2023-08-21T11:54:39;9.55;;;2.42;;
43678;SDS011;29279;50.858;4.392;2023-08-21T11:57:11;6.43;;;1.38;;
43678;SDS011;29279;50.858;4.392;2023-08-21T11:59:38;7.80;;;1.60;;
43678;SDS011;29279;50.858;4.392;2023-08-21T12:02:08;7.88;;;1.73;;
43678;SDS011;29279;50.858;4.392;2023-08-21T12:07:16;8.75;;;1.63;;
43678;SDS011;29279;50.858;4.392;2023-08-21T12:09:45;7.90;;;1.85;;
43678;SDS011;29279;50.858;4.392;2023-08-21T12:12:13;9.38;;;1.95;;
43678;SDS011;29279;50.858;4.392;2023-08-21T12:14:38;10.02;;;1.60;;
43678;SDS011;29279;50.858;4.392;2023-08-21T12:17:04;10.70;;;1.70;;
43678;SDS011;29279;50.858;4.392;2023-08-21T12:19:30;7.72;;;1.80;;
43678;SDS011;29279;50.858;4.392;2023-08-21T12:21:56;6.68;;;2.55;;
43678;SDS011;29279;50.858;4.392;2023-08-21T12:24:23;10.13;;;1.85;;
43678;SDS011;29279;50.858;4.392;2023-08-21T12:26:49;4.22;;;1.35;;
43678;SDS011;29279;50.858;4.392;2023-08-21T12:29:14;9.77;;;1.92;;
43678;SDS011;29279;50.858;4.392;2023-08-21T12:31:40;13.15;;;1.90;;
43678;SDS011;29279;50.858;4.392;2023-08-21T12:34:06;8.77;;;1.48;;
43678;SDS011;29279;50.858;4.392;2023-08-21T12:36:34;9.35;;;2.28;;
43678;SDS011;29279;50.858;4.392;2023-08-21T12:39:01;8.52;;;2.17;;
43678;SDS011;29279;50.858;4.392;2023-08-21T12:41:28;6.35;;;1.90;;
43678;SDS011;29279;50.858;4.392;2023-08-21T12:43:54;17.30;;;2.63;;
43678;SDS011;29279;50.858;4.392;2023-08-21T12:46:19;7.90;;;1.77;;
43678;SDS011;29279;50.858;4.392;2023-08-21T12:48:45;7.75;;;2.80;;
43678;SDS011;29279;50.858;4.392;2023-08-21T12:51:11;10.23;;;2.15;;
43678;SDS011;29279;50.858;4.392;2023-08-21T12:53:36;7.85;;;1.58;;
43678;SDS011;29279;50.858;4.392;2023-08-21T12:56:02;6.97;;;2.15;;
43678;SDS011;29279;50.858;4.392;2023-08-21T12:58:28;5.95;;;1.75;;
43678;SDS011;29279;50.858;4.392;2023-08-21T13:00:54;4.70;;;1.65;;
43678;SDS011;29279;50.858;4.392;2023-08-21T13:03:20;6.20;;;1.83;;
43678;SDS011;29279;50.858;4.392;2023-08-21T13:05:46;7.80;;;1.85;;
43678;SDS011;29279;50.858;4.392;2023-08-21T13:08:12;7.40;;;1.75;;
43678;SDS011;29279;50.858;4.392;2023-08-21T13:10:39;10.02;;;2.17;;
43678;SDS011;29279;50.858;4.392;2023-08-21T13:13:04;6.32;;;1.50;;
43678;SDS011;29279;50.858;4.392;2023-08-21T13:15:30;6.53;;;1.63;;
43678;SDS011;29279;50.858;4.392;2023-08-21T13:17:57;5.65;;;1.67;;
43678;SDS011;29279;50.858;4.392;2023-08-21T13:20:23;8.85;;;2.72;;
43678;SDS011;29279;50.858;4.392;2023-08-21T13:22:49;10.95;;;1.80;;
43678;SDS011;29279;50.858;4.392;2023-08-21T13:25:20;4.40;;;1.33;;
43678;SDS011;29279;50.858;4.392;2023-08-21T13:27:50;4.32;;;1.35;;
43678;SDS011;29279;50.858;4.392;2023-08-21T13:30:17;7.63;;;1.58;;
43678;SDS011;29279;50.858;4.392;2023-08-21T13:32:43;6.30;;;1.83;;
43678;SDS011;29279;50.858;4.392;2023-08-21T13:35:09;7.65;;;1.52;;
43678;SDS011;29279;50.858;4.392;2023-08-21T13:37:38;6.20;;;1.67;;
43678;SDS011;29279;50.858;4.392;2023-08-21T13:40:05;5.50;;;1.48;;
43678;SDS011;29279;50.858;4.392;2023-08-21T13:42:41;4.13;;;1.63;;
43678;SDS011;29279;50.858;4.392;2023-08-21T13:45:12;9.60;;;1.73;;
43678;SDS011;29279;50.858;4.392;2023-08-21T13:47:39;3.38;;;1.25;;
43678;SDS011;29279;50.858;4.392;2023-08-21T13:50:06;4.97;;;1.92;;
43678;SDS011;29279;50.858;4.392;2023-08-21T13:52:32;7.10;;;1.40;;
43678;SDS011;29279;50.858;4.392;2023-08-21T13:54:59;9.63;;;1.77;;
43678;SDS011;29279;50.858;4.392;2023-08-21T13:57:25;4.30;;;1.42;;
43678;SDS011;29279;50.858;4.392;2023-08-21T13:59:51;3.92;;;1.10;;
43678;SDS011;29279;50.858;4.392;2023-08-21T14:02:17;6.53;;;1.45;;
43678;SDS011;29279;50.858;4.392;2023-08-21T14:04:46;5.35;;;1.50;;
43678;SDS011;29279;50.858;4.392;2023-08-21T14:07:11;6.68;;;1.15;;
43678;SDS011;29279;50.858;4.392;2023-08-21T14:09:38;3.80;;;1.30;;
43678;SDS011;29279;50.858;4.392;2023-08-21T14:12:04;5.72;;;1.42;;
43678;SDS011;29279;50.858;4.392;2023-08-21T14:14:29;3.60;;;1.50;;
43678;SDS011;29279;50.858;4.392;2023-08-21T14:16:55;7.00;;;1.10;;
43678;SDS011;29279;50.858;4.392;2023-08-21T14:19:21;8.20;;;1.27;;
43678;SDS011;29279;50.858;4.392;2023-08-21T14:21:46;3.78;;;1.23;;
43678;SDS011;29279;50.858;4.392;2023-08-21T14:24:12;7.00;;;1.60;;
43678;SDS011;29279;50.858;4.392;2023-08-21T14:26:37;5.45;;;1.35;;
43678;SDS011;29279;50.858;4.392;2023-08-21T14:29:05;7.50;;;1.00;;
43678;SDS011;29279;50.858;4.392;2023-08-21T14:31:31;4.88;;;1.30;;
43678;SDS011;29279;50.858;4.392;2023-08-21T14:33:56;4.35;;;0.95;;
43678;SDS011;29279;50.858;4.392;2023-08-21T14:36:23;7.65;;;0.90;;
43678;SDS011;29279;50.858;4.392;2023-08-21T14:38:49;4.38;;;0.85;;
43678;SDS011;29279;50.858;4.392;2023-08-21T14:41:15;2.88;;;1.08;;
43678;SDS011;29279;50.858;4.392;2023-08-21T14:43:41;3.80;;;1.00;;